sensor_id;sensor_type;location;lat;lon;timestamp;P1;durP1;ratioP1;P2;durP2;ratioP2
49310;SDS011;35177;45.900;5.946;2023-04-25T00:00:17;3.25;;;1.77;;
49310;SDS011;35177;45.900;5.946;2023-04-25T00:02:42;5.57;;;2.47;;
49310;SDS011;35177;45.900;5.946;2023-04-25T00:05:07;3.22;;;2.10;;
49310;SDS011;35177;45.900;5.946;2023-04-25T00:07:33;3.40;;;2.55;;
49310;SDS011;35177;45.900;5.946;2023-04-25T00:09:58;3.33;;;2.47;;
49310;SDS011;35177;45.900;5.946;2023-04-25T00:12:24;2.50;;;1.90;;
49310;SDS011;35177;45.900;5.946;2023-04-25T00:14:49;7.78;;;2.75;;
49310;SDS011;35177;45.900;5.946;2023-04-25T00:17:15;6.22;;;2.70;;
49310;SDS011;35177;45.900;5.946;2023-04-25T00:22:44;5.63;;;2.90;;
49310;SDS011;35177;45.900;5.946;2023-04-25T00:25:09;7.78;;;2.65;;
49310;SDS011;35177;45.900;5.946;2023-04-25T00:27:34;6.13;;;2.42;;
49310;SDS011;35177;45.900;5.946;2023-04-25T00:30:00;5.90;;;2.50;;
49310;SDS011;35177;45.900;5.946;2023-04-25T00:32:25;3.40;;;2.33;;
49310;SDS011;35177;45.900;5.946;2023-04-25T00:34:50;10.15;;;2.88;;
49310;SDS011;35177;45.900;5.946;2023-04-25T00:37:16;4.78;;;2.50;;
49310;SDS011;35177;45.900;5.946;2023-04-25T00:39:41;5.50;;;2.72;;
49310;SDS011;35177;45.900;5.946;2023-04-25T00:42:06;3.92;;;2.58;;
49310;SDS011;35177;45.900;5.946;2023-04-25T00:44:32;4.70;;;2.42;;
49310;SDS011;35177;45.900;5.946;2023-04-25T00:46:58;3.70;;;2.33;;
49310;SDS011;35177;45.900;5.946;2023-04-25T00:49:24;3.25;;;2.20;;
49310;SDS011;35177;45.900;5.946;2023-04-25T00:51:49;4.68;;;2.55;;
49310;SDS011;35177;45.900;5.946;2023-04-25T00:54:15;5.70;;;2.42;;
49310;SDS011;35177;45.900;5.946;2023-04-25T00:56:41;3.03;;;2.45;;
49310;SDS011;35177;45.900;5.946;2023-04-25T00:59:06;7.22;;;2.50;;
49310;SDS011;35177;45.900;5.946;2023-04-25T01:01:32;3.58;;;2.40;;
49310;SDS011;35177;45.900;5.946;2023-04-25T01:03:58;6.18;;;2.78;;
49310;SDS011;35177;45.900;5.946;2023-04-25T01:06:23;10.38;;;3.30;;
49310;SDS011;35177;45.900;5.946;2023-04-25T01:08:49;5.07;;;2.95;;
49310;SDS011;35177;45.900;5.946;2023-04-25T01:11:14;5.20;;;2.40;;
49310;SDS011;35177;45.900;5.946;2023-04-25T01:13:39;9.30;;;2.58;;
49310;SDS011;35177;45.900;5.946;2023-04-25T01:16:05;6.22;;;3.15;;
49310;SDS011;35177;45.900;5.946;2023-04-25T01:18:30;6.03;;;2.75;;
49310;SDS011;35177;45.900;5.946;2023-04-25T01:20:56;5.50;;;2.75;;
49310;SDS011;35177;45.900;5.946;2023-04-25T01:23:23;5.80;;;2.65;;
49310;SDS011;35177;45.900;5.946;2023-04-25T01:25:48;4.90;;;2.97;;
49310;SDS011;35177;45.900;5.946;2023-04-25T01:28:14;5.55;;;2.60;;
49310;SDS011;35177;45.900;5.946;2023-04-25T01:30:39;4.78;;;2.40;;
49310;SDS011;35177;45.900;5.946;2023-04-25T01:33:05;3.53;;;2.53;;
49310;SDS011;35177;45.900;5.946;2023-04-25T01:35:32;4.93;;;2.80;;
49310;SDS011;35177;45.900;5.946;2023-04-25T01:37:58;4.57;;;2.83;;
49310;SDS011;35177;45.900;5.946;2023-04-25T01:40:23;4.55;;;2.75;;
49310;SDS011;35177;45.900;5.946;2023-04-25T01:42:49;3.92;;;2.42;;
49310;SDS011;35177;45.900;5.946;2023-04-25T01:45:15;3.28;;;2.53;;
49310;SDS011;35177;45.900;5.946;2023-04-25T01:47:41;5.32;;;2.72;;
49310;SDS011;35177;45.900;5.946;2023-04-25T01:50:08;5.32;;;2.85;;
49310;SDS011;35177;45.900;5.946;2023-04-25T01:52:33;4.50;;;2.70;;
49310;SDS011;35177;45.900;5.946;2023-04-25T01:55:00;6.82;;;2.80;;
49310;SDS011;35177;45.900;5.946;2023-04-25T01:57:26;4.60;;;2.83;;
49310;SDS011;35177;45.900;5.946;2023-04-25T01:59:51;5.15;;;3.15;;
49310;SDS011;35177;45.900;5.946;2023-04-25T02:02:18;4.72;;;2.65;;
49310;SDS011;35177;45.900;5.946;2023-04-25T02:04:43;8.00;;;2.80;;
49310;SDS011;35177;45.900;5.946;2023-04-25T02:07:09;4.45;;;2.65;;
49310;SDS011;35177;45.900;5.946;2023-04-25T02:09:34;2.90;;;2.50;;
49310;SDS011;35177;45.900;5.946;2023-04-25T02:11:59;4.05;;;2.65;;
49310;SDS011;35177;45.900;5.946;2023-04-25T02:14:25;5.85;;;3.00;;
49310;SDS011;35177;45.900;5.946;2023-04-25T02:16:50;3.88;;;3.22;;
49310;SDS011;35177;45.900;5.946;2023-04-25T02:19:16;6.53;;;3.40;;
49310;SDS011;35177;45.900;5.946;2023-04-25T02:21:41;4.47;;;3.00;;
49310;SDS011;35177;45.900;5.946;2023-04-25T02:24:07;5.80;;;3.42;;
49310;SDS011;35177;45.900;5.946;2023-04-25T02:26:32;6.47;;;3.08;;
49310;SDS011;35177;45.900;5.946;2023-04-25T02:28:57;12.88;;;5.60;;
49310;SDS011;35177;45.900;5.946;2023-04-25T02:31:23;8.70;;;3.75;;
49310;SDS011;35177;45.900;5.946;2023-04-25T02:33:48;4.40;;;3.60;;
49310;SDS011;35177;45.900;5.946;2023-04-25T02:36:13;8.80;;;3.65;;
49310;SDS011;35177;45.900;5.946;2023-04-25T02:38:38;12.27;;;7.05;;
49310;SDS011;35177;45.900;5.946;2023-04-25T02:41:04;7.95;;;4.45;;
49310;SDS011;35177;45.900;5.946;2023-04-25T02:43:29;10.90;;;3.13;;
49310;SDS011;35177;45.900;5.946;2023-04-25T02:45:55;4.35;;;3.47;;
49310;SDS011;35177;45.900;5.946;2023-04-25T02:48:20;7.20;;;3.55;;
49310;SDS011;35177;45.900;5.946;2023-04-25T02:50:45;11.27;;;4.00;;
49310;SDS011;35177;45.900;5.946;2023-04-25T02:53:11;7.50;;;3.55;;
49310;SDS011;35177;45.900;5.946;2023-04-25T02:55:36;4.47;;;2.85;;
49310;SDS011;35177;45.900;5.946;2023-04-25T02:58:01;4.47;;;2.83;;
49310;SDS011;35177;45.900;5.946;2023-04-25T03:00:27;7.05;;;2.95;;
49310;SDS011;35177;45.900;5.946;2023-04-25T03:02:52;7.88;;;2.67;;
49310;SDS011;35177;45.900;5.946;2023-04-25T03:05:17;6.13;;;3.60;;
49310;SDS011;35177;45.900;5.946;2023-04-25T03:07:43;6.18;;;2.90;;
49310;SDS011;35177;45.900;5.946;2023-04-25T03:10:09;6.68;;;3.00;;
49310;SDS011;35177;45.900;5.946;2023-04-25T03:12:35;31.25;;;12.80;;
49310;SDS011;35177;45.900;5.946;2023-04-25T03:15:00;37.03;;;18.55;;
49310;SDS011;35177;45.900;5.946;2023-04-25T03:17:25;41.58;;;18.88;;
49310;SDS011;35177;45.900;5.946;2023-04-25T03:19:51;42.80;;;17.80;;
49310;SDS011;35177;45.900;5.946;2023-04-25T03:22:16;30.42;;;14.80;;
49310;SDS011;35177;45.900;5.946;2023-04-25T03:24:41;25.45;;;13.65;;
49310;SDS011;35177;45.900;5.946;2023-04-25T03:27:06;9.90;;;3.88;;
49310;SDS011;35177;45.900;5.946;2023-04-25T03:29:32;6.43;;;2.70;;
49310;SDS011;35177;45.900;5.946;2023-04-25T03:31:57;5.45;;;2.63;;
49310;SDS011;35177;45.900;5.946;2023-04-25T03:34:22;3.38;;;2.20;;
49310;SDS011;35177;45.900;5.946;2023-04-25T03:36:49;3.63;;;2.33;;
49310;SDS011;35177;45.900;5.946;2023-04-25T03:39:14;7.65;;;2.28;;
49310;SDS011;35177;45.900;5.946;2023-04-25T03:41:39;4.53;;;2.25;;
49310;SDS011;35177;45.900;5.946;2023-04-25T03:44:05;3.45;;;2.40;;
49310;SDS011;35177;45.900;5.946;2023-04-25T03:46:30;5.50;;;3.03;;
49310;SDS011;35177;45.900;5.946;2023-04-25T03:48:55;4.25;;;1.88;;
49310;SDS011;35177;45.900;5.946;2023-04-25T03:51:20;3.50;;;2.10;;
49310;SDS011;35177;45.900;5.946;2023-04-25T03:53:47;3.30;;;2.03;;
49310;SDS011;35177;45.900;5.946;2023-04-25T03:56:12;4.88;;;2.03;;
49310;SDS011;35177;45.900;5.946;2023-04-25T03:58:38;9.68;;;2.80;;
49310;SDS011;35177;45.900;5.946;2023-04-25T04:01:03;6.53;;;2.30;;
49310;SDS011;35177;45.900;5.946;2023-04-25T04:03:32;5.50;;;2.50;;
49310;SDS011;35177;45.900;5.946;2023-04-25T04:05:57;3.45;;;2.67;;
49310;SDS011;35177;45.900;5.946;2023-04-25T04:08:22;5.90;;;2.00;;
49310;SDS011;35177;45.900;5.946;2023-04-25T04:10:48;3.65;;;1.88;;
49310;SDS011;35177;45.900;5.946;2023-04-25T04:13:13;5.18;;;1.67;;
49310;SDS011;35177;45.900;5.946;2023-04-25T04:15:38;3.20;;;1.80;;
49310;SDS011;35177;45.900;5.946;2023-04-25T04:18:04;4.13;;;1.50;;
49310;SDS011;35177;45.900;5.946;2023-04-25T04:20:29;5.07;;;2.35;;
49310;SDS011;35177;45.900;5.946;2023-04-25T04:22:57;3.60;;;2.30;;
49310;SDS011;35177;45.900;5.946;2023-04-25T04:25:23;4.95;;;2.72;;
49310;SDS011;35177;45.900;5.946;2023-04-25T04:27:49;4.22;;;2.58;;
49310;SDS011;35177;45.900;5.946;2023-04-25T04:30:16;5.32;;;2.40;;
49310;SDS011;35177;45.900;5.946;2023-04-25T04:32:42;5.78;;;2.15;;
49310;SDS011;35177;45.900;5.946;2023-04-25T04:35:08;5.05;;;2.38;;
49310;SDS011;35177;45.900;5.946;2023-04-25T04:37:34;3.42;;;2.05;;
49310;SDS011;35177;45.900;5.946;2023-04-25T04:39:59;4.15;;;1.67;;
49310;SDS011;35177;45.900;5.946;2023-04-25T04:42:24;3.22;;;2.10;;
49310;SDS011;35177;45.900;5.946;2023-04-25T04:44:50;4.57;;;1.77;;
49310;SDS011;35177;45.900;5.946;2023-04-25T04:47:17;8.75;;;1.25;;
49310;SDS011;35177;45.900;5.946;2023-04-25T04:49:42;4.05;;;1.40;;
49310;SDS011;35177;45.900;5.946;2023-04-25T04:52:07;3.70;;;1.23;;
49310;SDS011;35177;45.900;5.946;2023-04-25T04:54:33;2.97;;;1.55;;
49310;SDS011;35177;45.900;5.946;2023-04-25T04:57:00;6.25;;;1.98;;
49310;SDS011;35177;45.900;5.946;2023-04-25T04:59:25;4.68;;;2.05;;
49310;SDS011;35177;45.900;5.946;2023-04-25T05:01:52;2.33;;;2.10;;
49310;SDS011;35177;45.900;5.946;2023-04-25T05:04:17;5.03;;;2.70;;
49310;SDS011;35177;45.900;5.946;2023-04-25T05:06:42;9.65;;;2.53;;
49310;SDS011;35177;45.900;5.946;2023-04-25T05:09:09;3.80;;;1.98;;
49310;SDS011;35177;45.900;5.946;2023-04-25T05:11:34;7.10;;;2.03;;
49310;SDS011;35177;45.900;5.946;2023-04-25T05:13:59;4.05;;;2.00;;
49310;SDS011;35177;45.900;5.946;2023-04-25T05:16:25;5.03;;;2.38;;
49310;SDS011;35177;45.900;5.946;2023-04-25T05:18:50;4.57;;;2.53;;
49310;SDS011;35177;45.900;5.946;2023-04-25T05:21:15;2.22;;;2.00;;
49310;SDS011;35177;45.900;5.946;2023-04-25T05:23:41;4.15;;;2.20;;
49310;SDS011;35177;45.900;5.946;2023-04-25T05:26:06;4.03;;;2.10;;
49310;SDS011;35177;45.900;5.946;2023-04-25T05:28:38;3.63;;;2.40;;
49310;SDS011;35177;45.900;5.946;2023-04-25T05:31:03;3.47;;;2.20;;
49310;SDS011;35177;45.900;5.946;2023-04-25T05:33:29;6.10;;;2.53;;
49310;SDS011;35177;45.900;5.946;2023-04-25T05:35:55;7.13;;;1.95;;
49310;SDS011;35177;45.900;5.946;2023-04-25T05:38:20;3.90;;;2.00;;
49310;SDS011;35177;45.900;5.946;2023-04-25T05:40:45;3.83;;;2.40;;
49310;SDS011;35177;45.900;5.946;2023-04-25T05:43:11;7.78;;;3.25;;
49310;SDS011;35177;45.900;5.946;2023-04-25T05:45:36;5.20;;;3.30;;
49310;SDS011;35177;45.900;5.946;2023-04-25T05:48:01;5.20;;;3.05;;
49310;SDS011;35177;45.900;5.946;2023-04-25T05:50:26;7.65;;;2.35;;
49310;SDS011;35177;45.900;5.946;2023-04-25T05:52:52;5.78;;;2.75;;
49310;SDS011;35177;45.900;5.946;2023-04-25T05:55:17;6.32;;;2.88;;
49310;SDS011;35177;45.900;5.946;2023-04-25T05:57:42;4.22;;;3.08;;
49310;SDS011;35177;45.900;5.946;2023-04-25T06:00:11;6.05;;;2.80;;
49310;SDS011;35177;45.900;5.946;2023-04-25T06:02:36;3.83;;;2.78;;
49310;SDS011;35177;45.900;5.946;2023-04-25T06:05:02;4.40;;;2.58;;
49310;SDS011;35177;45.900;5.946;2023-04-25T06:07:30;6.85;;;3.05;;
49310;SDS011;35177;45.900;5.946;2023-04-25T06:09:56;8.75;;;3.08;;
49310;SDS011;35177;45.900;5.946;2023-04-25T06:12:21;6.60;;;2.63;;
49310;SDS011;35177;45.900;5.946;2023-04-25T06:14:46;4.95;;;2.60;;
49310;SDS011;35177;45.900;5.946;2023-04-25T06:17:11;5.93;;;2.30;;
49310;SDS011;35177;45.900;5.946;2023-04-25T06:19:37;4.28;;;2.80;;
49310;SDS011;35177;45.900;5.946;2023-04-25T06:22:02;2.67;;;2.13;;
49310;SDS011;35177;45.900;5.946;2023-04-25T06:24:28;3.90;;;2.50;;
49310;SDS011;35177;45.900;5.946;2023-04-25T06:26:53;3.22;;;2.17;;
49310;SDS011;35177;45.900;5.946;2023-04-25T06:29:19;3.33;;;2.25;;
49310;SDS011;35177;45.900;5.946;2023-04-25T06:31:44;3.53;;;2.00;;
49310;SDS011;35177;45.900;5.946;2023-04-25T06:34:10;3.22;;;1.83;;
49310;SDS011;35177;45.900;5.946;2023-04-25T06:36:35;4.32;;;2.03;;
49310;SDS011;35177;45.900;5.946;2023-04-25T06:39:01;2.58;;;1.80;;
49310;SDS011;35177;45.900;5.946;2023-04-25T06:41:26;3.40;;;1.73;;
49310;SDS011;35177;45.900;5.946;2023-04-25T06:43:51;2.95;;;2.10;;
49310;SDS011;35177;45.900;5.946;2023-04-25T06:46:17;6.30;;;2.40;;
49310;SDS011;35177;45.900;5.946;2023-04-25T06:48:42;4.03;;;2.03;;
49310;SDS011;35177;45.900;5.946;2023-04-25T06:51:07;7.53;;;2.47;;
49310;SDS011;35177;45.900;5.946;2023-04-25T06:53:33;3.78;;;2.33;;
49310;SDS011;35177;45.900;5.946;2023-04-25T06:55:58;3.80;;;2.35;;
49310;SDS011;35177;45.900;5.946;2023-04-25T06:58:24;6.85;;;2.67;;
49310;SDS011;35177;45.900;5.946;2023-04-25T07:00:51;5.63;;;2.58;;
49310;SDS011;35177;45.900;5.946;2023-04-25T07:03:16;5.43;;;2.80;;
49310;SDS011;35177;45.900;5.946;2023-04-25T07:05:42;4.70;;;2.50;;
49310;SDS011;35177;45.900;5.946;2023-04-25T07:08:07;4.07;;;2.60;;
49310;SDS011;35177;45.900;5.946;2023-04-25T07:10:32;5.13;;;2.80;;
49310;SDS011;35177;45.900;5.946;2023-04-25T07:12:58;6.35;;;3.25;;
49310;SDS011;35177;45.900;5.946;2023-04-25T07:15:24;6.25;;;2.72;;
49310;SDS011;35177;45.900;5.946;2023-04-25T07:17:49;5.22;;;2.97;;
49310;SDS011;35177;45.900;5.946;2023-04-25T07:20:15;11.00;;;3.88;;
49310;SDS011;35177;45.900;5.946;2023-04-25T07:22:41;8.18;;;3.50;;
49310;SDS011;35177;45.900;5.946;2023-04-25T07:25:06;8.02;;;3.70;;
49310;SDS011;35177;45.900;5.946;2023-04-25T07:27:32;5.15;;;3.30;;
49310;SDS011;35177;45.900;5.946;2023-04-25T07:29:58;6.32;;;3.40;;
49310;SDS011;35177;45.900;5.946;2023-04-25T07:32:23;6.18;;;2.58;;
49310;SDS011;35177;45.900;5.946;2023-04-25T07:34:49;6.07;;;3.60;;
49310;SDS011;35177;45.900;5.946;2023-04-25T07:37:14;10.85;;;2.70;;
49310;SDS011;35177;45.900;5.946;2023-04-25T07:39:40;5.40;;;2.70;;
49310;SDS011;35177;45.900;5.946;2023-04-25T07:42:05;6.20;;;3.03;;
49310;SDS011;35177;45.900;5.946;2023-04-25T07:44:33;19.42;;;4.00;;
49310;SDS011;35177;45.900;5.946;2023-04-25T07:47:03;7.47;;;3.38;;
49310;SDS011;35177;45.900;5.946;2023-04-25T07:49:29;3.65;;;2.50;;
49310;SDS011;35177;45.900;5.946;2023-04-25T07:51:54;4.30;;;2.60;;
49310;SDS011;35177;45.900;5.946;2023-04-25T07:54:20;6.05;;;2.63;;
49310;SDS011;35177;45.900;5.946;2023-04-25T07:56:48;4.75;;;2.95;;
49310;SDS011;35177;45.900;5.946;2023-04-25T07:59:14;8.43;;;3.40;;
49310;SDS011;35177;45.900;5.946;2023-04-25T08:01:39;4.00;;;2.42;;
49310;SDS011;35177;45.900;5.946;2023-04-25T08:04:04;3.85;;;2.90;;
49310;SDS011;35177;45.900;5.946;2023-04-25T08:06:30;6.10;;;3.90;;
49310;SDS011;35177;45.900;5.946;2023-04-25T08:08:56;6.55;;;3.35;;
49310;SDS011;35177;45.900;5.946;2023-04-25T08:11:21;4.03;;;2.60;;
49310;SDS011;35177;45.900;5.946;2023-04-25T08:13:46;6.82;;;3.30;;
49310;SDS011;35177;45.900;5.946;2023-04-25T08:16:12;5.88;;;3.20;;
49310;SDS011;35177;45.900;5.946;2023-04-25T08:18:39;7.40;;;3.00;;
49310;SDS011;35177;45.900;5.946;2023-04-25T08:21:04;18.20;;;3.10;;
49310;SDS011;35177;45.900;5.946;2023-04-25T08:23:29;4.50;;;2.83;;
49310;SDS011;35177;45.900;5.946;2023-04-25T08:25:55;10.23;;;2.42;;
49310;SDS011;35177;45.900;5.946;2023-04-25T08:28:20;4.50;;;2.20;;
49310;SDS011;35177;45.900;5.946;2023-04-25T08:30:45;4.82;;;2.70;;
49310;SDS011;35177;45.900;5.946;2023-04-25T08:33:12;9.25;;;2.97;;
49310;SDS011;35177;45.900;5.946;2023-04-25T08:35:37;7.03;;;2.30;;
49310;SDS011;35177;45.900;5.946;2023-04-25T08:38:03;3.60;;;2.50;;
49310;SDS011;35177;45.900;5.946;2023-04-25T08:40:28;4.45;;;2.22;;
49310;SDS011;35177;45.900;5.946;2023-04-25T08:42:56;5.35;;;2.38;;
49310;SDS011;35177;45.900;5.946;2023-04-25T08:45:22;6.90;;;4.15;;
49310;SDS011;35177;45.900;5.946;2023-04-25T08:47:51;3.65;;;1.80;;
49310;SDS011;35177;45.900;5.946;2023-04-25T08:50:17;3.15;;;1.88;;
49310;SDS011;35177;45.900;5.946;2023-04-25T08:52:45;6.20;;;1.75;;
49310;SDS011;35177;45.900;5.946;2023-04-25T08:55:12;3.97;;;1.75;;
49310;SDS011;35177;45.900;5.946;2023-04-25T08:57:38;4.55;;;2.30;;
49310;SDS011;35177;45.900;5.946;2023-04-25T09:00:04;6.15;;;1.77;;
49310;SDS011;35177;45.900;5.946;2023-04-25T09:02:30;2.22;;;1.75;;
49310;SDS011;35177;45.900;5.946;2023-04-25T09:04:55;4.25;;;2.00;;
49310;SDS011;35177;45.900;5.946;2023-04-25T09:07:21;4.50;;;2.03;;
49310;SDS011;35177;45.900;5.946;2023-04-25T09:09:47;3.95;;;1.80;;
49310;SDS011;35177;45.900;5.946;2023-04-25T09:12:12;4.57;;;2.10;;
49310;SDS011;35177;45.900;5.946;2023-04-25T09:14:38;5.65;;;1.58;;
49310;SDS011;35177;45.900;5.946;2023-04-25T09:17:04;5.20;;;1.85;;
49310;SDS011;35177;45.900;5.946;2023-04-25T09:21:56;7.60;;;1.60;;
49310;SDS011;35177;45.900;5.946;2023-04-25T09:24:43;6.90;;;2.35;;
49310;SDS011;35177;45.900;5.946;2023-04-25T09:27:09;5.10;;;1.63;;
49310;SDS011;35177;45.900;5.946;2023-04-25T09:29:36;1.85;;;1.40;;
49310;SDS011;35177;45.900;5.946;2023-04-25T09:34:44;2.65;;;1.10;;
49310;SDS011;35177;45.900;5.946;2023-04-25T09:37:10;2.97;;;1.40;;
49310;SDS011;35177;45.900;5.946;2023-04-25T09:39:38;7.15;;;1.92;;
49310;SDS011;35177;45.900;5.946;2023-04-25T09:42:04;1.70;;;1.10;;
49310;SDS011;35177;45.900;5.946;2023-04-25T09:44:29;4.05;;;1.38;;
49310;SDS011;35177;45.900;5.946;2023-04-25T09:46:55;2.97;;;1.50;;
49310;SDS011;35177;45.900;5.946;2023-04-25T09:49:20;2.75;;;1.20;;
49310;SDS011;35177;45.900;5.946;2023-04-25T09:51:59;2.75;;;1.60;;
49310;SDS011;35177;45.900;5.946;2023-04-25T09:54:25;1.85;;;1.27;;
49310;SDS011;35177;45.900;5.946;2023-04-25T09:56:51;5.80;;;1.35;;
49310;SDS011;35177;45.900;5.946;2023-04-25T09:59:19;3.30;;;1.20;;
49310;SDS011;35177;45.900;5.946;2023-04-25T10:01:44;3.40;;;1.63;;
49310;SDS011;35177;45.900;5.946;2023-04-25T10:04:10;2.90;;;1.42;;
49310;SDS011;35177;45.900;5.946;2023-04-25T10:06:36;3.97;;;1.60;;
49310;SDS011;35177;45.900;5.946;2023-04-25T10:09:02;2.72;;;1.80;;
49310;SDS011;35177;45.900;5.946;2023-04-25T10:11:28;4.35;;;1.52;;
49310;SDS011;35177;45.900;5.946;2023-04-25T10:13:55;3.38;;;1.40;;
49310;SDS011;35177;45.900;5.946;2023-04-25T10:16:21;3.13;;;1.67;;
49310;SDS011;35177;45.900;5.946;2023-04-25T10:18:46;3.78;;;1.90;;
49310;SDS011;35177;45.900;5.946;2023-04-25T10:21:11;2.97;;;1.60;;
49310;SDS011;35177;45.900;5.946;2023-04-25T10:23:37;3.25;;;1.60;;
49310;SDS011;35177;45.900;5.946;2023-04-25T10:26:03;3.75;;;1.75;;
49310;SDS011;35177;45.900;5.946;2023-04-25T10:28:29;2.88;;;1.70;;
49310;SDS011;35177;45.900;5.946;2023-04-25T10:31:04;2.58;;;1.10;;
49310;SDS011;35177;45.900;5.946;2023-04-25T10:33:39;3.83;;;1.50;;
49310;SDS011;35177;45.900;5.946;2023-04-25T10:36:14;3.40;;;1.60;;
49310;SDS011;35177;45.900;5.946;2023-04-25T10:38:40;4.40;;;1.42;;
49310;SDS011;35177;45.900;5.946;2023-04-25T10:41:07;3.00;;;1.42;;
49310;SDS011;35177;45.900;5.946;2023-04-25T10:43:40;4.38;;;1.25;;
49310;SDS011;35177;45.900;5.946;2023-04-25T10:46:27;5.57;;;1.48;;
49310;SDS011;35177;45.900;5.946;2023-04-25T10:48:52;3.67;;;1.48;;
49310;SDS011;35177;45.900;5.946;2023-04-25T10:51:21;3.33;;;1.30;;
49310;SDS011;35177;45.900;5.946;2023-04-25T10:54:06;3.03;;;1.75;;
49310;SDS011;35177;45.900;5.946;2023-04-25T10:56:39;1.65;;;1.40;;
49310;SDS011;35177;45.900;5.946;2023-04-25T10:59:09;7.68;;;1.85;;
49310;SDS011;35177;45.900;5.946;2023-04-25T11:01:39;6.72;;;2.15;;
49310;SDS011;35177;45.900;5.946;2023-04-25T11:04:05;1.75;;;1.02;;
49310;SDS011;35177;45.900;5.946;2023-04-25T11:09:14;1.75;;;1.02;;
49310;SDS011;35177;45.900;5.946;2023-04-25T11:11:40;4.50;;;1.40;;
49310;SDS011;35177;45.900;5.946;2023-04-25T11:14:05;2.47;;;1.27;;
49310;SDS011;35177;45.900;5.946;2023-04-25T11:16:31;3.28;;;1.20;;
49310;SDS011;35177;45.900;5.946;2023-04-25T11:18:57;3.95;;;1.30;;
49310;SDS011;35177;45.900;5.946;2023-04-25T11:21:22;5.45;;;1.52;;
49310;SDS011;35177;45.900;5.946;2023-04-25T11:23:48;3.70;;;1.52;;
49310;SDS011;35177;45.900;5.946;2023-04-25T11:26:13;2.20;;;1.15;;
49310;SDS011;35177;45.900;5.946;2023-04-25T11:28:40;2.65;;;1.40;;
49310;SDS011;35177;45.900;5.946;2023-04-25T11:31:05;2.25;;;0.90;;
49310;SDS011;35177;45.900;5.946;2023-04-25T11:33:31;2.88;;;1.02;;
49310;SDS011;35177;45.900;5.946;2023-04-25T11:35:56;1.00;;;0.90;;
49310;SDS011;35177;45.900;5.946;2023-04-25T11:38:24;1.50;;;1.02;;
49310;SDS011;35177;45.900;5.946;2023-04-25T11:40:51;1.20;;;0.88;;
49310;SDS011;35177;45.900;5.946;2023-04-25T11:43:17;2.00;;;1.00;;
49310;SDS011;35177;45.900;5.946;2023-04-25T11:45:45;3.03;;;1.25;;
49310;SDS011;35177;45.900;5.946;2023-04-25T11:48:10;1.52;;;0.90;;
49310;SDS011;35177;45.900;5.946;2023-04-25T11:50:37;2.08;;;1.17;;
49310;SDS011;35177;45.900;5.946;2023-04-25T11:53:03;1.63;;;0.98;;
49310;SDS011;35177;45.900;5.946;2023-04-25T11:55:29;5.30;;;0.93;;
49310;SDS011;35177;45.900;5.946;2023-04-25T11:57:55;1.05;;;0.80;;
49310;SDS011;35177;45.900;5.946;2023-04-25T12:00:21;2.45;;;1.10;;
49310;SDS011;35177;45.900;5.946;2023-04-25T12:02:50;3.15;;;1.00;;
49310;SDS011;35177;45.900;5.946;2023-04-25T12:05:16;4.00;;;1.25;;
49310;SDS011;35177;45.900;5.946;2023-04-25T12:07:41;1.83;;;1.10;;
49310;SDS011;35177;45.900;5.946;2023-04-25T12:10:08;1.30;;;0.95;;
49310;SDS011;35177;45.900;5.946;2023-04-25T12:12:34;1.85;;;0.90;;
49310;SDS011;35177;45.900;5.946;2023-04-25T12:17:35;3.38;;;1.40;;
49310;SDS011;35177;45.900;5.946;2023-04-25T12:20:05;1.60;;;1.10;;
49310;SDS011;35177;45.900;5.946;2023-04-25T12:22:30;3.17;;;1.02;;
49310;SDS011;35177;45.900;5.946;2023-04-25T12:24:56;4.60;;;1.05;;
49310;SDS011;35177;45.900;5.946;2023-04-25T12:27:23;4.13;;;1.30;;
49310;SDS011;35177;45.900;5.946;2023-04-25T12:29:51;1.48;;;1.20;;
49310;SDS011;35177;45.900;5.946;2023-04-25T12:32:17;2.17;;;1.30;;
49310;SDS011;35177;45.900;5.946;2023-04-25T12:34:43;5.15;;;1.10;;
49310;SDS011;35177;45.900;5.946;2023-04-25T12:37:08;4.30;;;2.22;;
49310;SDS011;35177;45.900;5.946;2023-04-25T12:39:33;4.07;;;1.50;;
49310;SDS011;35177;45.900;5.946;2023-04-25T12:41:58;2.33;;;1.27;;
49310;SDS011;35177;45.900;5.946;2023-04-25T12:44:24;4.03;;;1.25;;
49310;SDS011;35177;45.900;5.946;2023-04-25T12:46:50;2.83;;;1.00;;
49310;SDS011;35177;45.900;5.946;2023-04-25T12:49:15;2.97;;;1.20;;
49310;SDS011;35177;45.900;5.946;2023-04-25T12:51:40;1.77;;;1.20;;
49310;SDS011;35177;45.900;5.946;2023-04-25T12:54:06;2.40;;;1.23;;
49310;SDS011;35177;45.900;5.946;2023-04-25T12:56:32;4.05;;;1.45;;
49310;SDS011;35177;45.900;5.946;2023-04-25T12:58:58;5.57;;;1.30;;
49310;SDS011;35177;45.900;5.946;2023-04-25T13:01:23;3.30;;;1.23;;
49310;SDS011;35177;45.900;5.946;2023-04-25T13:03:49;3.53;;;1.10;;
49310;SDS011;35177;45.900;5.946;2023-04-25T13:06:15;2.25;;;1.20;;
49310;SDS011;35177;45.900;5.946;2023-04-25T13:08:40;2.10;;;1.05;;
49310;SDS011;35177;45.900;5.946;2023-04-25T13:11:07;2.15;;;1.40;;
49310;SDS011;35177;45.900;5.946;2023-04-25T13:13:32;2.40;;;1.00;;
49310;SDS011;35177;45.900;5.946;2023-04-25T13:15:59;4.35;;;1.25;;
49310;SDS011;35177;45.900;5.946;2023-04-25T13:18:24;4.20;;;1.20;;
49310;SDS011;35177;45.900;5.946;2023-04-25T13:20:54;2.33;;;1.30;;
49310;SDS011;35177;45.900;5.946;2023-04-25T13:23:19;2.85;;;1.25;;
49310;SDS011;35177;45.900;5.946;2023-04-25T13:25:45;3.85;;;1.30;;
49310;SDS011;35177;45.900;5.946;2023-04-25T13:28:10;4.88;;;1.40;;
49310;SDS011;35177;45.900;5.946;2023-04-25T13:30:36;4.03;;;1.20;;
49310;SDS011;35177;45.900;5.946;2023-04-25T13:33:02;4.05;;;1.00;;
49310;SDS011;35177;45.900;5.946;2023-04-25T13:35:28;3.55;;;1.15;;
49310;SDS011;35177;45.900;5.946;2023-04-25T13:37:54;3.97;;;1.50;;
49310;SDS011;35177;45.900;5.946;2023-04-25T13:40:19;1.42;;;1.05;;
49310;SDS011;35177;45.900;5.946;2023-04-25T13:42:45;4.30;;;1.33;;
49310;SDS011;35177;45.900;5.946;2023-04-25T13:45:10;2.10;;;1.27;;
49310;SDS011;35177;45.900;5.946;2023-04-25T13:47:36;3.85;;;1.60;;
49310;SDS011;35177;45.900;5.946;2023-04-25T13:50:01;2.05;;;1.00;;
49310;SDS011;35177;45.900;5.946;2023-04-25T13:52:28;2.15;;;0.80;;
49310;SDS011;35177;45.900;5.946;2023-04-25T13:54:53;3.83;;;1.10;;
49310;SDS011;35177;45.900;5.946;2023-04-25T13:57:19;2.97;;;1.10;;
49310;SDS011;35177;45.900;5.946;2023-04-25T13:59:44;2.08;;;1.10;;
49310;SDS011;35177;45.900;5.946;2023-04-25T14:02:11;2.47;;;1.10;;
49310;SDS011;35177;45.900;5.946;2023-04-25T14:04:36;3.72;;;1.20;;
49310;SDS011;35177;45.900;5.946;2023-04-25T14:07:02;6.07;;;1.20;;
49310;SDS011;35177;45.900;5.946;2023-04-25T14:09:27;3.90;;;1.00;;
49310;SDS011;35177;45.900;5.946;2023-04-25T14:11:53;2.95;;;1.20;;
49310;SDS011;35177;45.900;5.946;2023-04-25T14:14:18;2.58;;;1.05;;
49310;SDS011;35177;45.900;5.946;2023-04-25T14:16:44;2.15;;;1.10;;
49310;SDS011;35177;45.900;5.946;2023-04-25T14:19:09;1.42;;;0.95;;
49310;SDS011;35177;45.900;5.946;2023-04-25T14:21:35;1.52;;;0.98;;
49310;SDS011;35177;45.900;5.946;2023-04-25T14:24:02;4.53;;;1.33;;
49310;SDS011;35177;45.900;5.946;2023-04-25T14:26:28;1.30;;;0.90;;
49310;SDS011;35177;45.900;5.946;2023-04-25T14:28:53;2.38;;;1.60;;
49310;SDS011;35177;45.900;5.946;2023-04-25T14:31:18;2.35;;;1.10;;
49310;SDS011;35177;45.900;5.946;2023-04-25T14:33:44;1.63;;;1.00;;
49310;SDS011;35177;45.900;5.946;2023-04-25T14:36:10;1.25;;;1.10;;
49310;SDS011;35177;45.900;5.946;2023-04-25T14:38:39;1.95;;;1.02;;
49310;SDS011;35177;45.900;5.946;2023-04-25T14:41:04;1.70;;;0.95;;
49310;SDS011;35177;45.900;5.946;2023-04-25T14:43:32;2.83;;;1.13;;
49310;SDS011;35177;45.900;5.946;2023-04-25T14:45:57;3.13;;;2.00;;
49310;SDS011;35177;45.900;5.946;2023-04-25T14:48:23;2.63;;;1.63;;
49310;SDS011;35177;45.900;5.946;2023-04-25T14:50:49;1.42;;;1.10;;
49310;SDS011;35177;45.900;5.946;2023-04-25T14:53:14;1.63;;;1.10;;